sensor_id;sensor_type;location;lat;lon;timestamp;P1;durP1;ratioP1;P2;durP2;ratioP2
5533;SDS011;2789;51.902;7.636;2022-10-31T00:00:09;19.33;;;13.38;;
5533;SDS011;2789;51.902;7.636;2022-10-31T00:01:13;20.23;;;12.57;;
5533;SDS011;2789;51.902;7.636;2022-10-31T00:02:16;18.88;;;12.48;;
5533;SDS011;2789;51.902;7.636;2022-10-31T00:03:19;19.08;;;12.43;;
5533;SDS011;2789;51.902;7.636;2022-10-31T00:04:20;20.98;;;12.60;;
5533;SDS011;2789;51.902;7.636;2022-10-31T00:05:23;22.17;;;13.57;;
5533;SDS011;2789;51.902;7.636;2022-10-31T00:06:25;21.45;;;12.73;;
5533;SDS011;2789;51.902;7.636;2022-10-31T00:07:27;22.15;;;12.85;;
5533;SDS011;2789;51.902;7.636;2022-10-31T00:08:30;18.45;;;13.10;;
5533;SDS011;2789;51.902;7.636;2022-10-31T00:09:33;22.48;;;14.07;;
5533;SDS011;2789;51.902;7.636;2022-10-31T00:10:36;18.85;;;12.77;;
5533;SDS011;2789;51.902;7.636;2022-10-31T00:11:39;23.40;;;13.52;;
5533;SDS011;2789;51.902;7.636;2022-10-31T00:12:42;23.08;;;13.48;;
5533;SDS011;2789;51.902;7.636;2022-10-31T00:13:44;19.63;;;13.18;;
5533;SDS011;2789;51.902;7.636;2022-10-31T00:14:46;25.42;;;13.95;;
5533;SDS011;2789;51.902;7.636;2022-10-31T00:15:48;25.55;;;13.82;;
5533;SDS011;2789;51.902;7.636;2022-10-31T00:16:50;26.10;;;14.75;;
5533;SDS011;2789;51.902;7.636;2022-10-31T00:17:52;23.45;;;13.23;;
5533;SDS011;2789;51.902;7.636;2022-10-31T00:18:55;22.60;;;15.00;;
5533;SDS011;2789;51.902;7.636;2022-10-31T00:19:58;23.25;;;14.45;;
5533;SDS011;2789;51.902;7.636;2022-10-31T00:21:01;24.00;;;14.40;;
5533;SDS011;2789;51.902;7.636;2022-10-31T00:22:03;24.45;;;14.60;;
5533;SDS011;2789;51.902;7.636;2022-10-31T00:23:06;24.77;;;14.57;;
5533;SDS011;2789;51.902;7.636;2022-10-31T00:24:10;22.63;;;13.43;;
5533;SDS011;2789;51.902;7.636;2022-10-31T00:25:13;21.55;;;14.45;;
5533;SDS011;2789;51.902;7.636;2022-10-31T00:26:14;24.27;;;15.18;;
5533;SDS011;2789;51.902;7.636;2022-10-31T00:27:17;20.52;;;13.82;;
5533;SDS011;2789;51.902;7.636;2022-10-31T00:28:19;23.23;;;15.63;;
5533;SDS011;2789;51.902;7.636;2022-10-31T00:29:21;24.30;;;14.63;;
5533;SDS011;2789;51.902;7.636;2022-10-31T00:30:24;24.88;;;15.32;;
5533;SDS011;2789;51.902;7.636;2022-10-31T00:31:26;24.42;;;15.48;;
5533;SDS011;2789;51.902;7.636;2022-10-31T00:32:28;22.23;;;14.65;;
5533;SDS011;2789;51.902;7.636;2022-10-31T00:33:32;25.98;;;15.93;;
5533;SDS011;2789;51.902;7.636;2022-10-31T00:34:35;22.23;;;14.10;;
5533;SDS011;2789;51.902;7.636;2022-10-31T00:35:36;22.80;;;14.93;;
5533;SDS011;2789;51.902;7.636;2022-10-31T00:36:39;26.65;;;16.25;;
5533;SDS011;2789;51.902;7.636;2022-10-31T00:37:40;29.92;;;19.25;;
5533;SDS011;2789;51.902;7.636;2022-10-31T00:38:43;28.50;;;17.92;;
5533;SDS011;2789;51.902;7.636;2022-10-31T00:39:46;31.38;;;18.27;;
5533;SDS011;2789;51.902;7.636;2022-10-31T00:40:50;25.10;;;16.98;;
5533;SDS011;2789;51.902;7.636;2022-10-31T00:41:52;22.58;;;15.23;;
5533;SDS011;2789;51.902;7.636;2022-10-31T00:42:54;25.67;;;15.05;;
5533;SDS011;2789;51.902;7.636;2022-10-31T00:43:56;21.00;;;13.93;;
5533;SDS011;2789;51.902;7.636;2022-10-31T00:44:58;23.00;;;15.77;;
5533;SDS011;2789;51.902;7.636;2022-10-31T00:46:00;25.42;;;16.20;;
5533;SDS011;2789;51.902;7.636;2022-10-31T00:47:03;27.20;;;15.85;;
5533;SDS011;2789;51.902;7.636;2022-10-31T00:48:05;26.55;;;16.38;;
5533;SDS011;2789;51.902;7.636;2022-10-31T00:49:07;26.27;;;16.58;;
5533;SDS011;2789;51.902;7.636;2022-10-31T00:50:09;23.15;;;14.82;;
5533;SDS011;2789;51.902;7.636;2022-10-31T00:51:14;25.75;;;15.60;;
5533;SDS011;2789;51.902;7.636;2022-10-31T00:52:16;26.45;;;16.40;;
5533;SDS011;2789;51.902;7.636;2022-10-31T00:53:18;24.75;;;16.33;;
5533;SDS011;2789;51.902;7.636;2022-10-31T00:54:20;32.08;;;17.67;;
5533;SDS011;2789;51.902;7.636;2022-10-31T00:55:23;27.83;;;16.10;;
5533;SDS011;2789;51.902;7.636;2022-10-31T00:56:26;20.92;;;14.38;;
5533;SDS011;2789;51.902;7.636;2022-10-31T00:57:27;26.50;;;16.88;;
5533;SDS011;2789;51.902;7.636;2022-10-31T00:58:30;25.58;;;15.98;;
5533;SDS011;2789;51.902;7.636;2022-10-31T00:59:31;25.00;;;16.85;;
5533;SDS011;2789;51.902;7.636;2022-10-31T01:00:34;24.48;;;16.67;;
5533;SDS011;2789;51.902;7.636;2022-10-31T01:01:36;28.60;;;18.52;;
5533;SDS011;2789;51.902;7.636;2022-10-31T01:02:38;29.58;;;17.90;;
5533;SDS011;2789;51.902;7.636;2022-10-31T01:03:40;28.35;;;17.20;;
5533;SDS011;2789;51.902;7.636;2022-10-31T01:04:43;26.75;;;18.27;;
5533;SDS011;2789;51.902;7.636;2022-10-31T01:05:45;26.50;;;16.65;;
5533;SDS011;2789;51.902;7.636;2022-10-31T01:06:47;29.20;;;18.45;;
5533;SDS011;2789;51.902;7.636;2022-10-31T01:07:49;27.02;;;16.75;;
5533;SDS011;2789;51.902;7.636;2022-10-31T01:08:52;28.92;;;17.42;;
5533;SDS011;2789;51.902;7.636;2022-10-31T01:09:53;27.85;;;17.83;;
5533;SDS011;2789;51.902;7.636;2022-10-31T01:11:01;32.28;;;18.48;;
5533;SDS011;2789;51.902;7.636;2022-10-31T01:12:04;31.42;;;17.23;;
5533;SDS011;2789;51.902;7.636;2022-10-31T01:13:07;26.35;;;17.55;;
5533;SDS011;2789;51.902;7.636;2022-10-31T01:14:09;32.20;;;18.85;;
5533;SDS011;2789;51.902;7.636;2022-10-31T01:15:12;25.00;;;17.60;;
5533;SDS011;2789;51.902;7.636;2022-10-31T01:16:16;28.83;;;17.38;;
5533;SDS011;2789;51.902;7.636;2022-10-31T01:17:20;28.10;;;18.17;;
5533;SDS011;2789;51.902;7.636;2022-10-31T01:18:22;26.52;;;17.17;;
5533;SDS011;2789;51.902;7.636;2022-10-31T01:19:24;27.50;;;17.70;;
5533;SDS011;2789;51.902;7.636;2022-10-31T01:20:26;27.85;;;18.05;;
5533;SDS011;2789;51.902;7.636;2022-10-31T01:21:28;26.50;;;16.70;;
5533;SDS011;2789;51.902;7.636;2022-10-31T01:22:30;25.85;;;16.88;;
5533;SDS011;2789;51.902;7.636;2022-10-31T01:23:33;29.95;;;17.60;;
5533;SDS011;2789;51.902;7.636;2022-10-31T01:24:35;28.40;;;17.50;;
5533;SDS011;2789;51.902;7.636;2022-10-31T01:25:38;28.27;;;15.88;;
5533;SDS011;2789;51.902;7.636;2022-10-31T01:26:41;31.92;;;16.77;;
5533;SDS011;2789;51.902;7.636;2022-10-31T01:27:43;30.50;;;17.88;;
5533;SDS011;2789;51.902;7.636;2022-10-31T01:28:46;27.92;;;16.30;;
5533;SDS011;2789;51.902;7.636;2022-10-31T01:29:50;27.02;;;17.40;;
5533;SDS011;2789;51.902;7.636;2022-10-31T01:30:51;23.30;;;16.67;;
5533;SDS011;2789;51.902;7.636;2022-10-31T01:31:54;25.27;;;17.52;;
5533;SDS011;2789;51.902;7.636;2022-10-31T01:32:56;25.52;;;17.77;;
5533;SDS011;2789;51.902;7.636;2022-10-31T01:33:58;27.60;;;16.70;;
5533;SDS011;2789;51.902;7.636;2022-10-31T01:35:01;26.70;;;17.48;;
5533;SDS011;2789;51.902;7.636;2022-10-31T01:36:10;28.77;;;17.08;;
5533;SDS011;2789;51.902;7.636;2022-10-31T01:37:17;27.15;;;16.83;;
5533;SDS011;2789;51.902;7.636;2022-10-31T01:38:19;26.23;;;18.67;;
5533;SDS011;2789;51.902;7.636;2022-10-31T01:39:21;36.58;;;19.60;;
5533;SDS011;2789;51.902;7.636;2022-10-31T01:40:28;28.08;;;18.67;;
5533;SDS011;2789;51.902;7.636;2022-10-31T01:41:31;32.35;;;19.10;;
5533;SDS011;2789;51.902;7.636;2022-10-31T01:42:36;25.15;;;17.65;;
5533;SDS011;2789;51.902;7.636;2022-10-31T01:43:45;30.08;;;18.77;;
5533;SDS011;2789;51.902;7.636;2022-10-31T01:44:54;32.10;;;18.30;;
5533;SDS011;2789;51.902;7.636;2022-10-31T01:45:57;29.88;;;17.83;;
5533;SDS011;2789;51.902;7.636;2022-10-31T01:47:01;27.20;;;17.42;;
5533;SDS011;2789;51.902;7.636;2022-10-31T01:48:06;26.17;;;17.23;;
5533;SDS011;2789;51.902;7.636;2022-10-31T01:49:14;29.17;;;17.95;;
5533;SDS011;2789;51.902;7.636;2022-10-31T01:50:23;25.67;;;15.73;;
5533;SDS011;2789;51.902;7.636;2022-10-31T01:51:30;30.33;;;16.67;;
5533;SDS011;2789;51.902;7.636;2022-10-31T01:52:35;29.20;;;18.92;;
5533;SDS011;2789;51.902;7.636;2022-10-31T01:53:39;26.60;;;17.10;;
5533;SDS011;2789;51.902;7.636;2022-10-31T01:54:45;28.70;;;17.70;;
5533;SDS011;2789;51.902;7.636;2022-10-31T01:55:49;30.02;;;17.38;;
5533;SDS011;2789;51.902;7.636;2022-10-31T01:56:52;29.50;;;18.48;;
5533;SDS011;2789;51.902;7.636;2022-10-31T01:57:59;29.42;;;17.42;;
5533;SDS011;2789;51.902;7.636;2022-10-31T01:59:09;25.40;;;17.08;;
5533;SDS011;2789;51.902;7.636;2022-10-31T02:00:12;28.38;;;16.20;;
5533;SDS011;2789;51.902;7.636;2022-10-31T02:01:16;25.77;;;17.33;;
5533;SDS011;2789;51.902;7.636;2022-10-31T02:02:18;29.15;;;18.58;;
5533;SDS011;2789;51.902;7.636;2022-10-31T02:03:21;28.50;;;17.08;;
5533;SDS011;2789;51.902;7.636;2022-10-31T02:04:23;26.42;;;16.17;;
5533;SDS011;2789;51.902;7.636;2022-10-31T02:05:27;27.50;;;16.52;;
5533;SDS011;2789;51.902;7.636;2022-10-31T02:06:32;25.25;;;16.60;;
5533;SDS011;2789;51.902;7.636;2022-10-31T02:07:38;29.08;;;18.77;;
5533;SDS011;2789;51.902;7.636;2022-10-31T02:08:41;31.13;;;17.23;;
5533;SDS011;2789;51.902;7.636;2022-10-31T02:09:45;29.02;;;16.42;;
5533;SDS011;2789;51.902;7.636;2022-10-31T02:10:47;28.65;;;16.80;;
5533;SDS011;2789;51.902;7.636;2022-10-31T02:11:50;24.33;;;16.15;;
5533;SDS011;2789;51.902;7.636;2022-10-31T02:12:53;28.05;;;17.38;;
5533;SDS011;2789;51.902;7.636;2022-10-31T02:13:59;27.88;;;16.80;;
5533;SDS011;2789;51.902;7.636;2022-10-31T02:15:01;28.02;;;17.08;;
5533;SDS011;2789;51.902;7.636;2022-10-31T02:16:05;24.85;;;16.35;;
5533;SDS011;2789;51.902;7.636;2022-10-31T02:17:08;30.83;;;17.15;;
5533;SDS011;2789;51.902;7.636;2022-10-31T02:18:10;28.83;;;16.55;;
5533;SDS011;2789;51.902;7.636;2022-10-31T02:19:13;26.98;;;16.55;;
5533;SDS011;2789;51.902;7.636;2022-10-31T02:20:19;25.60;;;17.15;;
5533;SDS011;2789;51.902;7.636;2022-10-31T02:21:23;24.27;;;16.73;;
5533;SDS011;2789;51.902;7.636;2022-10-31T02:22:34;27.40;;;16.10;;
5533;SDS011;2789;51.902;7.636;2022-10-31T02:25:19;26.60;;;17.85;;
5533;SDS011;2789;51.902;7.636;2022-10-31T02:26:34;28.33;;;16.52;;
5533;SDS011;2789;51.902;7.636;2022-10-31T02:28:09;30.60;;;17.90;;
5533;SDS011;2789;51.902;7.636;2022-10-31T02:29:44;24.95;;;17.23;;
5533;SDS011;2789;51.902;7.636;2022-10-31T02:31:08;28.98;;;17.33;;
5533;SDS011;2789;51.902;7.636;2022-10-31T02:32:19;29.17;;;18.08;;
5533;SDS011;2789;51.902;7.636;2022-10-31T02:33:23;31.15;;;17.60;;
5533;SDS011;2789;51.902;7.636;2022-10-31T02:34:29;28.13;;;17.98;;
5533;SDS011;2789;51.902;7.636;2022-10-31T02:35:39;29.10;;;17.75;;
5533;SDS011;2789;51.902;7.636;2022-10-31T02:36:45;28.23;;;17.85;;
5533;SDS011;2789;51.902;7.636;2022-10-31T02:37:54;26.92;;;16.48;;
5533;SDS011;2789;51.902;7.636;2022-10-31T02:39:02;23.02;;;16.60;;
5533;SDS011;2789;51.902;7.636;2022-10-31T02:40:13;31.73;;;17.15;;
5533;SDS011;2789;51.902;7.636;2022-10-31T02:41:18;27.08;;;16.95;;
5533;SDS011;2789;51.902;7.636;2022-10-31T02:42:22;28.08;;;16.70;;
5533;SDS011;2789;51.902;7.636;2022-10-31T02:43:30;31.13;;;17.40;;
5533;SDS011;2789;51.902;7.636;2022-10-31T02:44:37;26.67;;;17.17;;
5533;SDS011;2789;51.902;7.636;2022-10-31T02:45:41;31.83;;;17.25;;
5533;SDS011;2789;51.902;7.636;2022-10-31T02:46:48;30.55;;;18.73;;
5533;SDS011;2789;51.902;7.636;2022-10-31T02:47:51;27.35;;;17.02;;
5533;SDS011;2789;51.902;7.636;2022-10-31T02:48:56;31.58;;;19.25;;
5533;SDS011;2789;51.902;7.636;2022-10-31T02:50:04;32.00;;;19.73;;
5533;SDS011;2789;51.902;7.636;2022-10-31T02:51:09;31.52;;;18.60;;
5533;SDS011;2789;51.902;7.636;2022-10-31T02:52:18;34.60;;;20.58;;
5533;SDS011;2789;51.902;7.636;2022-10-31T02:53:22;30.45;;;18.52;;
5533;SDS011;2789;51.902;7.636;2022-10-31T02:54:24;40.20;;;20.23;;
5533;SDS011;2789;51.902;7.636;2022-10-31T02:55:42;33.83;;;19.27;;
5533;SDS011;2789;51.902;7.636;2022-10-31T02:56:48;28.60;;;18.10;;
5533;SDS011;2789;51.902;7.636;2022-10-31T02:57:51;29.73;;;18.35;;
5533;SDS011;2789;51.902;7.636;2022-10-31T02:58:56;30.35;;;19.30;;
5533;SDS011;2789;51.902;7.636;2022-10-31T03:00:02;32.50;;;19.90;;
5533;SDS011;2789;51.902;7.636;2022-10-31T03:01:09;33.72;;;19.17;;
5533;SDS011;2789;51.902;7.636;2022-10-31T03:02:22;28.35;;;16.88;;
5533;SDS011;2789;51.902;7.636;2022-10-31T03:03:33;27.13;;;18.48;;
5533;SDS011;2789;51.902;7.636;2022-10-31T03:04:44;31.73;;;18.30;;
5533;SDS011;2789;51.902;7.636;2022-10-31T03:05:53;26.98;;;16.60;;
5533;SDS011;2789;51.902;7.636;2022-10-31T03:06:57;31.27;;;17.83;;
5533;SDS011;2789;51.902;7.636;2022-10-31T03:08:06;29.50;;;17.60;;
5533;SDS011;2789;51.902;7.636;2022-10-31T03:09:12;28.42;;;17.40;;
5533;SDS011;2789;51.902;7.636;2022-10-31T03:10:20;29.42;;;17.63;;
5533;SDS011;2789;51.902;7.636;2022-10-31T03:11:32;31.15;;;18.73;;
5533;SDS011;2789;51.902;7.636;2022-10-31T03:12:38;29.33;;;18.20;;
5533;SDS011;2789;51.902;7.636;2022-10-31T03:13:48;26.13;;;17.52;;
5533;SDS011;2789;51.902;7.636;2022-10-31T03:14:53;31.85;;;18.63;;
5533;SDS011;2789;51.902;7.636;2022-10-31T03:16:01;28.35;;;17.80;;
5533;SDS011;2789;51.902;7.636;2022-10-31T03:17:09;30.58;;;18.65;;
5533;SDS011;2789;51.902;7.636;2022-10-31T03:18:17;28.77;;;18.15;;
5533;SDS011;2789;51.902;7.636;2022-10-31T03:19:23;26.27;;;18.02;;
5533;SDS011;2789;51.902;7.636;2022-10-31T03:20:29;31.42;;;18.23;;
5533;SDS011;2789;51.902;7.636;2022-10-31T03:21:37;34.22;;;18.42;;
5533;SDS011;2789;51.902;7.636;2022-10-31T03:22:41;32.55;;;18.58;;
5533;SDS011;2789;51.902;7.636;2022-10-31T03:23:44;28.05;;;18.15;;
5533;SDS011;2789;51.902;7.636;2022-10-31T03:24:47;31.42;;;18.80;;
5533;SDS011;2789;51.902;7.636;2022-10-31T03:25:50;30.23;;;17.45;;
5533;SDS011;2789;51.902;7.636;2022-10-31T03:26:53;31.35;;;18.27;;
5533;SDS011;2789;51.902;7.636;2022-10-31T03:27:57;29.02;;;18.65;;
5533;SDS011;2789;51.902;7.636;2022-10-31T03:29:02;27.98;;;18.17;;
5533;SDS011;2789;51.902;7.636;2022-10-31T03:30:06;27.70;;;19.35;;
5533;SDS011;2789;51.902;7.636;2022-10-31T03:31:08;28.50;;;19.75;;
5533;SDS011;2789;51.902;7.636;2022-10-31T03:32:13;31.25;;;18.52;;
5533;SDS011;2789;51.902;7.636;2022-10-31T03:33:20;29.42;;;17.98;;
5533;SDS011;2789;51.902;7.636;2022-10-31T03:34:30;29.23;;;18.02;;
5533;SDS011;2789;51.902;7.636;2022-10-31T03:35:32;29.88;;;19.02;;
5533;SDS011;2789;51.902;7.636;2022-10-31T03:36:35;31.88;;;19.45;;
5533;SDS011;2789;51.902;7.636;2022-10-31T03:37:39;32.20;;;19.75;;
5533;SDS011;2789;51.902;7.636;2022-10-31T03:38:42;31.15;;;18.98;;
5533;SDS011;2789;51.902;7.636;2022-10-31T03:39:46;29.75;;;19.02;;
5533;SDS011;2789;51.902;7.636;2022-10-31T03:40:50;28.92;;;19.02;;
5533;SDS011;2789;51.902;7.636;2022-10-31T03:41:53;31.50;;;19.88;;
5533;SDS011;2789;51.902;7.636;2022-10-31T03:42:59;36.90;;;20.90;;
5533;SDS011;2789;51.902;7.636;2022-10-31T03:44:04;32.92;;;19.50;;
5533;SDS011;2789;51.902;7.636;2022-10-31T03:45:10;33.40;;;20.58;;
5533;SDS011;2789;51.902;7.636;2022-10-31T03:46:13;36.28;;;19.95;;
5533;SDS011;2789;51.902;7.636;2022-10-31T03:47:15;30.90;;;19.95;;
5533;SDS011;2789;51.902;7.636;2022-10-31T03:48:18;34.78;;;19.45;;
5533;SDS011;2789;51.902;7.636;2022-10-31T03:49:22;38.40;;;19.20;;
5533;SDS011;2789;51.902;7.636;2022-10-31T03:50:24;32.53;;;20.65;;
5533;SDS011;2789;51.902;7.636;2022-10-31T03:51:30;33.53;;;20.67;;
5533;SDS011;2789;51.902;7.636;2022-10-31T03:52:35;34.25;;;20.77;;
5533;SDS011;2789;51.902;7.636;2022-10-31T03:53:44;31.38;;;18.15;;
5533;SDS011;2789;51.902;7.636;2022-10-31T03:54:49;30.30;;;18.75;;
5533;SDS011;2789;51.902;7.636;2022-10-31T03:55:56;32.83;;;19.05;;
5533;SDS011;2789;51.902;7.636;2022-10-31T03:57:02;29.75;;;18.48;;
5533;SDS011;2789;51.902;7.636;2022-10-31T03:58:08;27.90;;;18.67;;
5533;SDS011;2789;51.902;7.636;2022-10-31T03:59:13;27.85;;;19.05;;
5533;SDS011;2789;51.902;7.636;2022-10-31T04:00:17;31.80;;;18.85;;
5533;SDS011;2789;51.902;7.636;2022-10-31T04:01:19;30.65;;;19.15;;
5533;SDS011;2789;51.902;7.636;2022-10-31T04:02:25;36.45;;;19.15;;
5533;SDS011;2789;51.902;7.636;2022-10-31T04:03:31;33.00;;;20.27;;
5533;SDS011;2789;51.902;7.636;2022-10-31T04:04:34;34.17;;;19.25;;
5533;SDS011;2789;51.902;7.636;2022-10-31T04:05:36;29.15;;;18.20;;
5533;SDS011;2789;51.902;7.636;2022-10-31T04:06:39;33.30;;;19.52;;
5533;SDS011;2789;51.902;7.636;2022-10-31T04:07:44;30.23;;;17.50;;
5533;SDS011;2789;51.902;7.636;2022-10-31T04:08:51;29.00;;;17.20;;
5533;SDS011;2789;51.902;7.636;2022-10-31T04:09:54;27.42;;;18.85;;
5533;SDS011;2789;51.902;7.636;2022-10-31T04:10:57;27.85;;;18.10;;
5533;SDS011;2789;51.902;7.636;2022-10-31T04:12:00;25.50;;;17.38;;
5533;SDS011;2789;51.902;7.636;2022-10-31T04:13:04;29.38;;;18.73;;
5533;SDS011;2789;51.902;7.636;2022-10-31T04:14:08;26.70;;;18.23;;
5533;SDS011;2789;51.902;7.636;2022-10-31T04:15:11;30.10;;;17.40;;
5533;SDS011;2789;51.902;7.636;2022-10-31T04:16:13;33.20;;;19.52;;
5533;SDS011;2789;51.902;7.636;2022-10-31T04:17:18;25.45;;;17.30;;
5533;SDS011;2789;51.902;7.636;2022-10-31T04:18:22;30.67;;;17.98;;
5533;SDS011;2789;51.902;7.636;2022-10-31T04:19:26;28.35;;;17.77;;
5533;SDS011;2789;51.902;7.636;2022-10-31T04:20:29;28.30;;;18.10;;
5533;SDS011;2789;51.902;7.636;2022-10-31T04:21:34;35.45;;;19.75;;
5533;SDS011;2789;51.902;7.636;2022-10-31T04:22:37;33.65;;;19.27;;
5533;SDS011;2789;51.902;7.636;2022-10-31T04:23:39;30.13;;;20.02;;
5533;SDS011;2789;51.902;7.636;2022-10-31T04:24:41;34.13;;;18.90;;
5533;SDS011;2789;51.902;7.636;2022-10-31T04:25:43;33.00;;;19.20;;
5533;SDS011;2789;51.902;7.636;2022-10-31T04:26:46;36.38;;;20.90;;
5533;SDS011;2789;51.902;7.636;2022-10-31T04:27:47;36.28;;;19.95;;
5533;SDS011;2789;51.902;7.636;2022-10-31T04:28:50;32.10;;;17.95;;
5533;SDS011;2789;51.902;7.636;2022-10-31T04:29:51;31.27;;;20.42;;
5533;SDS011;2789;51.902;7.636;2022-10-31T04:30:54;37.55;;;19.77;;
5533;SDS011;2789;51.902;7.636;2022-10-31T04:31:55;34.00;;;19.45;;
5533;SDS011;2789;51.902;7.636;2022-10-31T04:32:58;31.45;;;18.73;;
5533;SDS011;2789;51.902;7.636;2022-10-31T04:34:00;25.58;;;18.02;;
5533;SDS011;2789;51.902;7.636;2022-10-31T04:35:04;27.80;;;18.60;;
5533;SDS011;2789;51.902;7.636;2022-10-31T04:36:07;25.50;;;17.48;;
5533;SDS011;2789;51.902;7.636;2022-10-31T04:37:09;29.15;;;18.27;;
5533;SDS011;2789;51.902;7.636;2022-10-31T04:38:11;29.95;;;17.70;;
5533;SDS011;2789;51.902;7.636;2022-10-31T04:39:14;26.05;;;17.48;;
5533;SDS011;2789;51.902;7.636;2022-10-31T04:40:15;26.90;;;16.98;;
5533;SDS011;2789;51.902;7.636;2022-10-31T04:41:18;32.45;;;19.38;;
5533;SDS011;2789;51.902;7.636;2022-10-31T04:42:19;28.08;;;18.48;;
5533;SDS011;2789;51.902;7.636;2022-10-31T04:43:22;29.45;;;19.13;;
5533;SDS011;2789;51.902;7.636;2022-10-31T04:44:24;25.50;;;16.70;;
5533;SDS011;2789;51.902;7.636;2022-10-31T04:45:26;34.22;;;19.25;;
5533;SDS011;2789;51.902;7.636;2022-10-31T04:46:28;34.05;;;19.05;;
5533;SDS011;2789;51.902;7.636;2022-10-31T04:47:31;25.70;;;18.73;;
5533;SDS011;2789;51.902;7.636;2022-10-31T04:48:33;27.30;;;17.83;;
5533;SDS011;2789;51.902;7.636;2022-10-31T04:49:36;30.58;;;19.15;;
5533;SDS011;2789;51.902;7.636;2022-10-31T04:50:39;30.45;;;17.88;;
5533;SDS011;2789;51.902;7.636;2022-10-31T04:51:43;25.17;;;17.20;;
5533;SDS011;2789;51.902;7.636;2022-10-31T04:52:45;28.95;;;18.30;;
5533;SDS011;2789;51.902;7.636;2022-10-31T04:53:48;29.63;;;18.27;;
5533;SDS011;2789;51.902;7.636;2022-10-31T04:54:53;28.52;;;17.85;;
5533;SDS011;2789;51.902;7.636;2022-10-31T04:55:57;29.98;;;17.80;;
5533;SDS011;2789;51.902;7.636;2022-10-31T04:56:59;32.33;;;18.17;;
5533;SDS011;2789;51.902;7.636;2022-10-31T04:58:01;29.75;;;18.42;;
5533;SDS011;2789;51.902;7.636;2022-10-31T04:59:04;25.83;;;18.38;;
5533;SDS011;2789;51.902;7.636;2022-10-31T05:00:07;28.30;;;17.88;;
5533;SDS011;2789;51.902;7.636;2022-10-31T05:01:09;26.10;;;17.40;;
5533;SDS011;2789;51.902;7.636;2022-10-31T05:02:12;26.48;;;17.67;;
5533;SDS011;2789;51.902;7.636;2022-10-31T05:03:14;31.65;;;19.02;;
5533;SDS011;2789;51.902;7.636;2022-10-31T05:04:16;28.98;;;17.55;;
5533;SDS011;2789;51.902;7.636;2022-10-31T05:05:19;30.92;;;18.08;;
5533;SDS011;2789;51.902;7.636;2022-10-31T05:06:23;27.45;;;17.33;;
5533;SDS011;2789;51.902;7.636;2022-10-31T05:07:25;28.23;;;17.95;;
5533;SDS011;2789;51.902;7.636;2022-10-31T05:08:27;28.17;;;18.35;;
5533;SDS011;2789;51.902;7.636;2022-10-31T05:09:29;29.98;;;18.40;;
5533;SDS011;2789;51.902;7.636;2022-10-31T05:10:34;30.13;;;18.65;;
5533;SDS011;2789;51.902;7.636;2022-10-31T05:11:35;31.02;;;18.95;;
5533;SDS011;2789;51.902;7.636;2022-10-31T05:12:44;35.80;;;18.35;;
5533;SDS011;2789;51.902;7.636;2022-10-31T05:13:47;28.17;;;17.95;;
5533;SDS011;2789;51.902;7.636;2022-10-31T05:14:49;31.40;;;18.55;;
5533;SDS011;2789;51.902;7.636;2022-10-31T05:15:51;31.08;;;19.10;;
5533;SDS011;2789;51.902;7.636;2022-10-31T05:16:54;30.27;;;19.17;;
5533;SDS011;2789;51.902;7.636;2022-10-31T05:17:55;31.80;;;19.50;;
5533;SDS011;2789;51.902;7.636;2022-10-31T05:18:59;30.10;;;18.58;;
5533;SDS011;2789;51.902;7.636;2022-10-31T05:20:00;35.75;;;19.10;;
5533;SDS011;2789;51.902;7.636;2022-10-31T05:21:03;33.15;;;19.00;;
5533;SDS011;2789;51.902;7.636;2022-10-31T05:22:06;31.40;;;19.77;;
5533;SDS011;2789;51.902;7.636;2022-10-31T05:23:09;30.20;;;18.13;;
5533;SDS011;2789;51.902;7.636;2022-10-31T05:24:10;31.00;;;18.25;;
5533;SDS011;2789;51.902;7.636;2022-10-31T05:25:13;31.27;;;20.08;;
5533;SDS011;2789;51.902;7.636;2022-10-31T05:26:15;31.13;;;19.55;;
5533;SDS011;2789;51.902;7.636;2022-10-31T05:27:18;27.88;;;19.02;;
5533;SDS011;2789;51.902;7.636;2022-10-31T05:28:20;27.67;;;18.40;;
5533;SDS011;2789;51.902;7.636;2022-10-31T05:29:22;32.10;;;21.15;;
5533;SDS011;2789;51.902;7.636;2022-10-31T05:30:26;29.60;;;18.77;;
5533;SDS011;2789;51.902;7.636;2022-10-31T05:31:29;31.45;;;19.48;;
5533;SDS011;2789;51.902;7.636;2022-10-31T05:32:36;28.45;;;18.85;;
5533;SDS011;2789;51.902;7.636;2022-10-31T05:33:38;30.85;;;19.55;;
5533;SDS011;2789;51.902;7.636;2022-10-31T05:34:40;29.95;;;17.75;;
5533;SDS011;2789;51.902;7.636;2022-10-31T05:35:42;28.73;;;16.83;;
5533;SDS011;2789;51.902;7.636;2022-10-31T05:36:45;28.80;;;18.33;;
5533;SDS011;2789;51.902;7.636;2022-10-31T05:37:47;32.60;;;18.45;;
5533;SDS011;2789;51.902;7.636;2022-10-31T05:38:50;28.30;;;17.48;;
5533;SDS011;2789;51.902;7.636;2022-10-31T05:39:51;29.10;;;18.10;;
5533;SDS011;2789;51.902;7.636;2022-10-31T05:40:54;31.30;;;18.35;;
5533;SDS011;2789;51.902;7.636;2022-10-31T05:41:58;31.33;;;18.42;;
5533;SDS011;2789;51.902;7.636;2022-10-31T05:43:01;27.13;;;18.75;;
5533;SDS011;2789;51.902;7.636;2022-10-31T05:44:03;28.42;;;18.30;;
5533;SDS011;2789;51.902;7.636;2022-10-31T05:45:07;33.72;;;18.20;;
5533;SDS011;2789;51.902;7.636;2022-10-31T05:46:09;35.60;;;18.92;;
5533;SDS011;2789;51.902;7.636;2022-10-31T05:47:12;28.10;;;18.20;;
5533;SDS011;2789;51.902;7.636;2022-10-31T05:48:13;28.23;;;18.40;;
5533;SDS011;2789;51.902;7.636;2022-10-31T05:49:16;27.50;;;16.90;;
5533;SDS011;2789;51.902;7.636;2022-10-31T05:50:18;26.52;;;18.00;;
5533;SDS011;2789;51.902;7.636;2022-10-31T05:51:21;28.25;;;17.70;;
5533;SDS011;2789;51.902;7.636;2022-10-31T05:52:23;26.27;;;17.27;;
5533;SDS011;2789;51.902;7.636;2022-10-31T05:53:27;27.80;;;18.25;;
5533;SDS011;2789;51.902;7.636;2022-10-31T05:54:29;30.20;;;18.08;;
5533;SDS011;2789;51.902;7.636;2022-10-31T05:55:31;31.10;;;18.85;;
5533;SDS011;2789;51.902;7.636;2022-10-31T05:56:34;27.67;;;17.75;;
5533;SDS011;2789;51.902;7.636;2022-10-31T05:57:36;29.98;;;18.48;;
5533;SDS011;2789;51.902;7.636;2022-10-31T05:58:38;25.92;;;17.90;;
5533;SDS011;2789;51.902;7.636;2022-10-31T05:59:41;30.88;;;18.92;;
5533;SDS011;2789;51.902;7.636;2022-10-31T06:00:42;29.60;;;17.65;;
5533;SDS011;2789;51.902;7.636;2022-10-31T06:01:45;28.25;;;18.08;;
5533;SDS011;2789;51.902;7.636;2022-10-31T06:02:47;28.80;;;17.75;;
5533;SDS011;2789;51.902;7.636;2022-10-31T06:03:49;32.58;;;18.73;;
5533;SDS011;2789;51.902;7.636;2022-10-31T06:04:51;32.92;;;19.00;;
5533;SDS011;2789;51.902;7.636;2022-10-31T06:05:54;27.67;;;18.40;;
5533;SDS011;2789;51.902;7.636;2022-10-31T06:06:56;29.98;;;18.63;;
5533;SDS011;2789;51.902;7.636;2022-10-31T06:07:58;28.90;;;18.25;;
5533;SDS011;2789;51.902;7.636;2022-10-31T06:09:03;30.05;;;17.70;;
5533;SDS011;2789;51.902;7.636;2022-10-31T06:10:05;30.70;;;18.90;;
5533;SDS011;2789;51.902;7.636;2022-10-31T06:11:08;32.67;;;18.30;;
5533;SDS011;2789;51.902;7.636;2022-10-31T06:12:10;32.33;;;19.00;;
5533;SDS011;2789;51.902;7.636;2022-10-31T06:13:12;34.90;;;18.85;;
5533;SDS011;2789;51.902;7.636;2022-10-31T06:14:14;31.92;;;18.95;;
5533;SDS011;2789;51.902;7.636;2022-10-31T06:15:17;30.25;;;19.75;;
5533;SDS011;2789;51.902;7.636;2022-10-31T06:16:24;30.00;;;18.75;;
5533;SDS011;2789;51.902;7.636;2022-10-31T06:17:27;28.52;;;17.65;;
5533;SDS011;2789;51.902;7.636;2022-10-31T06:18:28;35.40;;;18.17;;
5533;SDS011;2789;51.902;7.636;2022-10-31T06:19:31;29.98;;;18.00;;
5533;SDS011;2789;51.902;7.636;2022-10-31T06:20:32;29.13;;;18.33;;
5533;SDS011;2789;51.902;7.636;2022-10-31T06:21:35;30.98;;;17.90;;
5533;SDS011;2789;51.902;7.636;2022-10-31T06:22:37;29.25;;;17.40;;
5533;SDS011;2789;51.902;7.636;2022-10-31T06:23:39;31.50;;;18.40;;
5533;SDS011;2789;51.902;7.636;2022-10-31T06:24:42;26.75;;;17.60;;
5533;SDS011;2789;51.902;7.636;2022-10-31T06:25:48;27.50;;;17.10;;
5533;SDS011;2789;51.902;7.636;2022-10-31T06:26:50;25.92;;;16.92;;